Port Edward, Canada
Current Conditions -  °F | °C
As of 1:00 PM on Friday 19 Dec 2014 (Local Time) from CYPR Reporting Station
Light Rain Light Rain  
Wind Chill: 33°   Ceiling: 3200
Heat Index: 41°   Visibility: 6mi
Dew Point: 39°   Wind: 14mph
Humidity: 93%   Direction: 120°ESE
Pressure: 29.37"   Gusts: 20mph
Location:  54.22°N, 130.29°W
Report Text: CYPR 192100Z AUTO 12012G17KT 6SM -RA BR BKN032 OVC042 05/04 A2937 RMK SLP946
Loading
Personal Weather Stations






























Interactive Weather Map New forecast layout! Learn more

10-Day Weather Forecast

Advertisements
Track Severe Weather on mobile